Stations météo

Publicité
Isola Di Salina, Italie (16415): Température de l'air & dewpoint: 14.02.2018 01:00:00 - 20.02.2018 01:00:00 (CET)Isola Di Salina, Italie (16415): Vitesse du vent: 14.02.2018 01:00:00 - 20.02.2018 01:00:00 (CET)Isola Di Salina, Italie (16415): Direction du vent: 14.02.2018 01:00:00 - 20.02.2018 01:00:00 (CET)Isola Di Salina, Italie (16415): reduced air pressure: 14.02.2018 01:00:00 - 20.02.2018 01:00:00 (CET)Isola Di Salina, Italie (16415): Quantités de précipitations: 14.02.2018 01:00:00 - 20.02.2018 01:00:00 (CET)
Date & Time tt [°C] td [°C] ff [km/h] ff [knt] dd ppp [hPa] rr [mm]
20.02.2018 01:00:00 - - - - - - -
20.02.2018 00:00:00 10,4 9,1 5 3 W 1010,9 -
19.02.2018 23:00:00 10,5 9,2 8 4 WNW 1011,3 -
19.02.2018 22:00:00 10,7 9,6 9 5 NW 1011,4 -
19.02.2018 21:00:00 10,9 10,0 15 8 NW 1011,5 -
19.02.2018 20:00:00 11,2 10,3 15 8 NW 1011,4 -
19.02.2018 19:00:00 11,2 10,3 18 10 NW 1011,1 -
19.02.2018 18:00:00 11,0 9,9 15 8 WNW 1011,1 -
19.02.2018 17:00:00 11,5 10,4 16 9 WNW 1010,9 -
19.02.2018 16:00:00 11,9 10,8 16 9 NW 1010,9 -
19.02.2018 15:00:00 12,3 11,0 15 8 WNW 1011,0 -
19.02.2018 14:00:00 12,3 10,7 18 10 WNW 1011,2 -
19.02.2018 13:00:00 12,5 11,4 15 8 WNW 1011,6 -
19.02.2018 12:00:00 11,9 11,1 11 6 WNW 1012,3 -
19.02.2018 11:00:00 11,0 10,4 0 0 N 1012,6 -
19.02.2018 10:00:00 10,5 9,7 2 1 SSE 1012,8 -
19.02.2018 09:00:00 10,1 9,0 9 5 S 1012,8 -
19.02.2018 08:00:00 9,9 8,5 2 1 W 1012,7 -
19.02.2018 07:00:00 10,2 7,2 0 0 N 1012,3 0,0
19.02.2018 06:00:00 10,1 6,0 4 2 WNW 1012,0 -
19.02.2018 05:00:00 9,9 5,6 0 0 N 1012,1 -
19.02.2018 04:00:00 9,8 4,9 0 0 N 1012,3 -
19.02.2018 03:00:00 9,8 4,9 2 1 W 1012,9 -
19.02.2018 02:00:00 10,3 6,8 0 0 N 1013,2 -
19.02.2018 01:00:00 9,9 5,2 5 3 S 1013,6 0,0
19.02.2018 00:00:00 10,2 5,7 2 1 S 1014,0 -
18.02.2018 23:00:00 10,3 7,0 8 4 S 1014,3 -
18.02.2018 22:00:00 10,2 6,7 9 5 SSW 1014,8 -
18.02.2018 21:00:00 10,3 7,0 9 5 SSE 1015,1 -
18.02.2018 20:00:00 10,5 7,7 8 4 S 1015,3 -
18.02.2018 19:00:00 10,6 7,4 5 3 S 1015,4 0,0
18.02.2018 18:00:00 10,9 7,0 4 2 SSW 1015,3 -
18.02.2018 17:00:00 11,6 7,1 0 0 N 1015,3 -
18.02.2018 16:00:00 12,0 7,3 2 1 SE 1015,4 -
18.02.2018 15:00:00 12,4 7,8 2 1 ESE 1015,7 -
18.02.2018 14:00:00 12,4 7,8 4 2 SE 1016,0 -
18.02.2018 13:00:00 12,7 8,1 4 2 ESE 1016,5 0,0
18.02.2018 12:00:00 12,6 9,4 5 3 SE 1017,2 -
18.02.2018 11:00:00 12,3 10,0 8 4 SSE 1017,6 -
18.02.2018 10:00:00 11,2 8,2 9 5 SSE 1017,8 -
18.02.2018 09:00:00 10,3 7,0 8 4 SSE 1018,0 -
18.02.2018 08:00:00 9,3 6,3 4 2 S 1018,7 -
18.02.2018 07:00:00 8,7 6,1 5 3 S 1018,4 0,0
18.02.2018 06:00:00 8,7 6,8 5 3 S 1018,7 -
18.02.2018 05:00:00 8,5 5,7 4 2 S 1018,9 -
18.02.2018 04:00:00 8,4 5,5 5 3 S 1019,3 -
18.02.2018 03:00:00 8,8 5,9 4 2 SW 1019,7 -
18.02.2018 02:00:00 9,0 6,1 5 3 W 1020,3 -
18.02.2018 01:00:00 9,1 5,6 4 2 WSW 1020,8 0,0
18.02.2018 00:00:00 8,8 5,3 4 2 W 1020,9 -
17.02.2018 23:00:00 8,9 6,1 0 0 N 1021,4 -
17.02.2018 22:00:00 8,7 5,6 0 0 N 1021,1 -
17.02.2018 21:00:00 8,6 4,7 0 0 N 1021,4 -
17.02.2018 20:00:00 8,9 4,8 2 1 SSE 1021,6 -
17.02.2018 19:00:00 9,2 4,6 0 0 N 1021,8 0,0
17.02.2018 18:00:00 9,9 4,6 2 1 SSE 1021,2 -
17.02.2018 17:00:00 10,8 5,3 2 1 NE 1021,2 -
17.02.2018 16:00:00 11,5 5,9 2 1 N 1021,4 -
17.02.2018 15:00:00 11,8 6,2 5 3 N 1021,5 -
17.02.2018 14:00:00 12,4 6,8 4 2 NNE 1021,9 -
17.02.2018 13:00:00 12,2 6,0 4 2 NE 1022,7 0,0
17.02.2018 12:00:00 12,9 6,4 4 2 ESE 1023,3 -
17.02.2018 11:00:00 13,0 7,4 4 2 SE 1023,6 -
17.02.2018 10:00:00 12,9 8,3 5 3 SE 1024,0 -
17.02.2018 09:00:00 11,5 10,1 5 3 SSE 1024,6 -
17.02.2018 08:00:00 8,0 6,6 2 1 S 1024,9 -
17.02.2018 07:00:00 6,4 4,5 0 0 N 1024,8 0,0
17.02.2018 06:00:00 6,7 4,5 0 0 N 1024,6 -
17.02.2018 05:00:00 6,5 3,6 0 0 N 1024,8 -
17.02.2018 04:00:00 6,6 3,0 0 0 N 1024,6 -
17.02.2018 03:00:00 6,7 2,9 0 0 N 1024,8 -
17.02.2018 02:00:00 6,8 3,0 0 0 N 1025,4 -
17.02.2018 01:00:00 6,8 2,6 0 0 N 1025,4 0,0
17.02.2018 00:00:00 7,0 2,6 0 0 N 1025,4 -
16.02.2018 23:00:00 7,0 2,4 0 0 N 1025,6 -
16.02.2018 22:00:00 7,2 2,0 0 0 N 1025,7 -
16.02.2018 21:00:00 7,7 2,1 0 0 N 1025,5 -
16.02.2018 20:00:00 8,7 3,1 5 3 WSW 1025,3 -
16.02.2018 19:00:00 8,6 3,2 8 4 W 1025,3 0,0
16.02.2018 18:00:00 8,8 2,9 9 5 W 1025,1 -
16.02.2018 17:00:00 9,4 2,9 5 3 W 1025,1 -
16.02.2018 16:00:00 10,4 2,6 5 3 WNW 1024,8 -
16.02.2018 15:00:00 11,6 3,0 11 6 NW 1024,6 -
16.02.2018 14:00:00 11,6 3,0 13 7 NW 1024,6 -
16.02.2018 13:00:00 12,2 2,8 9 5 WNW 1025,1 0,0
16.02.2018 12:00:00 11,7 1,8 8 4 WNW 1025,3 -
16.02.2018 11:00:00 11,2 3,4 8 4 WNW 1025,4 -
16.02.2018 10:00:00 10,1 3,3 15 8 W 1025,1 -
16.02.2018 09:00:00 9,2 3,3 9 5 W 1024,9 -
16.02.2018 08:00:00 7,4 2,6 8 4 W 1024,8 -
16.02.2018 07:00:00 6,9 1,3 9 5 W 1024,4 0,0
16.02.2018 06:00:00 7,2 1,2 8 4 NW 1024,1 -
16.02.2018 05:00:00 7,3 0,9 13 7 NW 1023,6 -
16.02.2018 04:00:00 7,6 0,7 22 12 NNW 1023,5 -
16.02.2018 03:00:00 7,8 0,9 21 11 N 1023,2 -
16.02.2018 02:00:00 7,9 1,4 26 14 NNW 1023,2 -
16.02.2018 01:00:00 7,9 1,2 26 14 NNW 1022,9 0,0
16.02.2018 00:00:00 8,0 0,6 29 16 NNW 1022,8 -
15.02.2018 23:00:00 8,0 0,4 24 13 NW 1022,3 -
15.02.2018 22:00:00 7,9 1,0 22 12 NNW 1022,1 -
15.02.2018 21:00:00 7,7 -0,6 28 15 NNW 1021,6 -
15.02.2018 20:00:00 7,9 -0,4 37 20 NNW 1021,1 -
15.02.2018 19:00:00 8,1 1,2 39 21 NNW 1020,6 -
15.02.2018 18:00:00 8,1 0,5 42 23 NNW 1020,1 -
15.02.2018 17:00:00 7,9 0,3 35 19 NW 1019,6 -
15.02.2018 16:00:00 8,0 1,3 39 21 NNW 1019,0 -
15.02.2018 15:00:00 8,0 0,6 42 23 NNW 1019,1 -
15.02.2018 14:00:00 8,4 1,5 42 23 NNW 1018,6 -
15.02.2018 13:00:00 8,6 2,1 34 18 N 1018,3 -
15.02.2018 12:00:00 8,8 1,4 41 22 N 1018,4 -
15.02.2018 11:00:00 8,6 1,6 42 23 N 1017,7 -
15.02.2018 10:00:00 8,5 1,6 48 26 N 1016,7 -
15.02.2018 09:00:00 8,0 1,3 55 30 NNW 1015,7 -
15.02.2018 08:00:00 7,9 2,1 0 0 N 1015,2 -
15.02.2018 07:00:00 7,9 1,4 41 22 NNW 1013,7 -
15.02.2018 06:00:00 8,1 3,5 0 0 N 1013,6 -
15.02.2018 05:00:00 8,1 3,9 44 24 NNW 1013,1 -
15.02.2018 04:00:00 8,0 3,6 42 23 NNW 1012,5 -
15.02.2018 03:00:00 6,6 5,1 26 14 NNW 1013,2 -
15.02.2018 02:00:00 7,4 6,0 31 17 N 1012,6 -
15.02.2018 01:00:00 7,9 5,8 37 20 NNW 1011,4 -
15.02.2018 00:00:00 8,0 5,9 50 27 NNW 1010,8 -
14.02.2018 23:00:00 7,8 6,2 39 21 NNW 1010,7 -
14.02.2018 22:00:00 8,0 4,5 21 11 W 1010,9 -
14.02.2018 21:00:00 7,9 5,0 22 12 WNW 1010,2 -
14.02.2018 20:00:00 7,5 5,3 24 13 NW 1010,3 -
14.02.2018 19:00:00 7,6 5,9 16 9 WNW 1010,1 -
14.02.2018 18:00:00 7,5 5,9 15 8 W 1010,0 -
14.02.2018 17:00:00 7,0 5,5 13 7 W 1010,1 -
14.02.2018 16:00:00 7,7 5,1 11 6 NNW 1009,8 -
14.02.2018 15:00:00 7,3 5,7 18 10 W 1010,7 -
14.02.2018 14:00:00 7,5 5,4 13 7 E 1011,0 -
14.02.2018 13:00:00 8,4 4,9 15 8 SSW 1011,9 -
14.02.2018 12:00:00 9,0 3,1 15 8 S 1012,2 -
14.02.2018 11:00:00 10,5 3,2 5 3 SSW 1013,3 -
14.02.2018 10:00:00 10,3 5,0 8 4 W 1013,4 -
14.02.2018 09:00:00 9,0 4,6 5 3 SW 1014,1 -
14.02.2018 08:00:00 7,7 3,9 15 8 W 1014,2 -
14.02.2018 07:00:00 7,7 5,3 8 4 W 1014,4 -
14.02.2018 06:00:00 8,1 5,5 16 9 WNW 1014,2 -
14.02.2018 05:00:00 7,5 5,1 8 4 W 1014,4 -
14.02.2018 04:00:00 7,0 2,4 13 7 WNW 1014,3 -
14.02.2018 03:00:00 8,1 3,3 18 10 WNW 1014,7 -
14.02.2018 02:00:00 8,5 2,7 21 11 WNW 1014,7 -
14.02.2018 01:00:00 8,7 2,6 28 15 WNW 1014,4 -

tt = Température de l'air
td = dewpoint
ff = Vitesse du vent
dd = Direction du vent
ppp = reduced air pressure
rr = Quantités de précipitations

stations d'obs. à proximité